createdAt,value
2022-11-30T00:01:22.117Z,81.88
2022-11-30T00:03:49.064Z,80.30
2022-11-30T00:06:22.697Z,80.13
2022-11-30T00:08:54.053Z,81.72
2022-11-30T00:11:22.513Z,79.65
2022-11-30T00:13:49.108Z,78.22
2022-11-30T00:16:15.834Z,78.03
2022-11-30T00:18:42.287Z,77.43
2022-11-30T00:21:11.846Z,80.70
2022-11-30T00:23:40.225Z,77.47
2022-11-30T00:26:09.552Z,81.15
2022-11-30T00:28:37.536Z,78.28
2022-11-30T00:31:10.819Z,79.72
2022-11-30T00:33:38.267Z,74.73
2022-11-30T00:36:12.142Z,76.43
2022-11-30T00:38:38.992Z,79.45
2022-11-30T00:41:06.116Z,79.03
2022-11-30T00:43:32.533Z,76.88
2022-11-30T00:45:59.391Z,82.40
2022-11-30T00:48:25.810Z,74.93
2022-11-30T00:50:52.665Z,77.38
2022-11-30T00:53:19.268Z,78.45
2022-11-30T00:55:48.017Z,79.13
2022-11-30T00:58:14.902Z,77.65
2022-11-30T01:00:41.584Z,82.55
2022-11-30T01:03:08.226Z,77.78
2022-11-30T01:05:34.920Z,79.53
2022-11-30T01:08:02.350Z,79.13
2022-11-30T01:10:29.055Z,79.30
2022-11-30T01:12:55.817Z,83.40
2022-11-30T01:15:22.664Z,79.32
2022-11-30T01:17:49.046Z,81.03
2022-11-30T01:20:15.481Z,81.75
2022-11-30T01:22:41.932Z,83.53
2022-11-30T01:25:08.879Z,81.80
2022-11-30T01:27:35.192Z,83.40
2022-11-30T01:30:01.689Z,82.50
2022-11-30T01:32:28.141Z,82.47
2022-11-30T01:34:54.614Z,80.70
2022-11-30T01:37:20.956Z,80.07
2022-11-30T01:39:47.303Z,82.22
2022-11-30T01:42:16.847Z,83.53
2022-11-30T01:44:55.122Z,77.75
2022-11-30T01:47:27.977Z,78.20
2022-11-30T01:50:04.276Z,75.22
2022-11-30T01:52:41.183Z,75.88
2022-11-30T01:55:22.147Z,74.32
2022-11-30T01:57:56.116Z,79.50
2022-11-30T02:00:23.816Z,76.63
2022-11-30T02:02:58.744Z,76.35
2022-11-30T02:05:26.679Z,79.13
2022-11-30T02:07:54.041Z,84.78
2022-11-30T02:10:28.091Z,79.32
2022-11-30T02:13:15.884Z,77.45
2022-11-30T02:16:01.033Z,78.13
2022-11-30T02:18:38.704Z,75.35
2022-11-30T02:21:23.532Z,75.85
2022-11-30T02:24:11.810Z,74.32
2022-11-30T02:27:02.945Z,72.28
2022-11-30T02:30:05.437Z,71.40
2022-11-30T02:32:38.115Z,72.70
2022-11-30T02:35:07.061Z,72.88
2022-11-30T02:37:35.200Z,72.38
2022-11-30T02:40:01.592Z,72.38
2022-11-30T02:42:27.918Z,70.75
2022-11-30T02:44:54.678Z,72.40
2022-11-30T02:47:40.398Z,71.70
2022-11-30T02:50:18.654Z,71.55
2022-11-30T02:52:45.872Z,70.13
2022-11-30T02:55:16.982Z,71.47
2022-11-30T02:57:43.452Z,67.13
2022-11-30T03:00:12.231Z,74.13
2022-11-30T03:02:39.927Z,74.07
2022-11-30T03:05:07.202Z,71.97
2022-11-30T03:07:33.588Z,72.80
2022-11-30T03:10:00.431Z,71.07
2022-11-30T03:12:26.869Z,72.15
2022-11-30T03:14:53.466Z,72.97
2022-11-30T03:17:19.830Z,70.65
2022-11-30T03:19:46.150Z,73.00
2022-11-30T03:22:12.558Z,69.70
2022-11-30T03:24:38.963Z,69.43
2022-11-30T03:27:05.372Z,73.68
2022-11-30T03:29:31.699Z,70.30
2022-11-30T03:31:58.114Z,73.53
2022-11-30T03:34:26.468Z,67.55
2022-11-30T03:36:53.276Z,71.35
2022-11-30T03:39:19.688Z,69.18
2022-11-30T03:41:46.145Z,72.68
2022-11-30T03:44:12.657Z,71.15
2022-11-30T03:46:39.297Z,72.00
2022-11-30T03:49:05.826Z,66.65
2022-11-30T03:51:32.226Z,75.82
2022-11-30T03:53:58.857Z,72.25
2022-11-30T03:56:25.507Z,74.90
2022-11-30T03:58:51.894Z,71.00
2022-11-30T04:01:23.648Z,73.95
2022-11-30T04:03:51.774Z,74.10
2022-11-30T04:06:19.522Z,71.85
2022-11-30T04:08:46.392Z,75.38
2022-11-30T04:11:14.193Z,74.38
2022-11-30T04:13:41.346Z,68.47
2022-11-30T04:16:08.048Z,69.50
2022-11-30T04:18:36.391Z,67.75
2022-11-30T04:21:03.126Z,73.45
2022-11-30T04:23:31.985Z,69.15
2022-11-30T04:25:58.873Z,66.95
2022-11-30T04:28:25.378Z,68.25
2022-11-30T04:30:53.827Z,71.05
2022-11-30T04:33:20.368Z,68.25
2022-11-30T04:35:50.138Z,70.15
2022-11-30T04:38:16.541Z,67.95
2022-11-30T04:40:44.014Z,68.05
2022-11-30T04:43:11.878Z,68.80
2022-11-30T04:45:38.936Z,68.70
2022-11-30T04:48:06.513Z,64.90
2022-11-30T04:50:33.379Z,66.40
2022-11-30T04:52:59.837Z,63.85
2022-11-30T04:55:26.783Z,69.05
2022-11-30T04:57:53.631Z,65.75
2022-11-30T05:00:20.344Z,69.15
2022-11-30T05:02:52.420Z,66.30
2022-11-30T05:05:19.624Z,66.90
2022-11-30T05:07:49.708Z,68.32
2022-11-30T05:10:16.506Z,64.88
2022-11-30T05:12:43.031Z,70.25
2022-11-30T05:15:09.973Z,65.13
2022-11-30T05:17:36.404Z,68.05
2022-11-30T05:20:03.198Z,69.47
2022-11-30T05:22:29.610Z,65.00
2022-11-30T05:24:55.966Z,69.72
2022-11-30T05:27:22.813Z,64.78
2022-11-30T05:29:49.343Z,63.83
2022-11-30T05:32:15.712Z,63.47
2022-11-30T05:34:50.631Z,63.35
2022-11-30T05:37:18.169Z,64.95
2022-11-30T05:39:44.538Z,67.00
2022-11-30T05:42:13.797Z,70.78
2022-11-30T05:44:40.184Z,71.35
2022-11-30T05:47:06.594Z,66.20
2022-11-30T05:49:33.077Z,71.32
2022-11-30T05:51:59.571Z,68.35
2022-11-30T05:54:25.995Z,72.35
2022-11-30T05:56:55.026Z,68.90
2022-11-30T05:59:22.514Z,69.28
2022-11-30T06:01:49.091Z,70.88
2022-11-30T06:04:15.595Z,72.05
2022-11-30T06:06:41.970Z,67.85
2022-11-30T06:09:08.334Z,70.40
2022-11-30T06:11:34.686Z,71.53
2022-11-30T06:14:00.991Z,71.03
2022-11-30T06:16:27.330Z,70.82
2022-11-30T06:18:53.697Z,69.30
2022-11-30T06:21:24.434Z,69.70
2022-11-30T06:23:52.182Z,68.60
2022-11-30T06:26:18.559Z,67.40
2022-11-30T06:28:48.217Z,66.20
2022-11-30T06:31:15.714Z,63.22
2022-11-30T06:33:42.132Z,62.35
2022-11-30T06:36:09.193Z,59.30
2022-11-30T06:38:35.532Z,56.83
2022-11-30T06:41:07.200Z,56.80
2022-11-30T06:43:35.533Z,54.92
2022-11-30T06:46:03.560Z,51.50
2022-11-30T06:48:30.146Z,51.03
2022-11-30T06:50:56.595Z,52.92
2022-11-30T06:53:22.953Z,51.80
2022-11-30T06:55:49.391Z,48.72
2022-11-30T06:58:15.872Z,48.22
2022-11-30T07:00:42.805Z,49.67
2022-11-30T07:03:11.302Z,49.95
2022-11-30T07:05:43.959Z,52.85
2022-11-30T07:08:11.566Z,52.17
2022-11-30T07:10:46.232Z,51.22
2022-11-30T07:13:14.704Z,51.45
2022-11-30T07:15:42.133Z,50.88
2022-11-30T07:18:09.450Z,52.30
2022-11-30T07:20:36.936Z,51.40
2022-11-30T07:23:22.594Z,50.97
2022-11-30T07:26:06.216Z,50.53
2022-11-30T07:28:33.951Z,51.37
2022-11-30T07:31:00.288Z,48.08
2022-11-30T07:33:26.693Z,50.13
2022-11-30T07:35:54.012Z,47.60
2022-11-30T07:38:20.338Z,50.47
2022-11-30T07:40:46.645Z,50.80
2022-11-30T07:43:12.975Z,52.03
2022-11-30T07:45:39.320Z,47.85
2022-11-30T07:48:05.763Z,49.40
2022-11-30T07:50:32.110Z,47.78
2022-11-30T07:52:58.581Z,47.42
2022-11-30T07:55:25.042Z,47.50
2022-11-30T07:57:51.392Z,47.38
2022-11-30T08:00:17.859Z,49.55
2022-11-30T08:02:44.200Z,50.35
2022-11-30T08:05:12.118Z,48.40
2022-11-30T08:07:38.633Z,51.20
2022-11-30T08:10:05.859Z,49.03
2022-11-30T08:12:32.434Z,50.88
2022-11-30T08:15:19.215Z,50.47
2022-11-30T08:17:45.520Z,48.42
2022-11-30T08:20:12.106Z,49.83
2022-11-30T08:22:38.482Z,50.60
2022-11-30T08:25:05.482Z,50.97
2022-11-30T08:27:31.793Z,51.70
2022-11-30T08:29:58.110Z,48.45
2022-11-30T08:32:24.417Z,49.42
2022-11-30T08:34:50.933Z,50.53
2022-11-30T08:37:17.423Z,49.97
2022-11-30T08:39:43.808Z,54.03
2022-11-30T08:42:10.124Z,55.53
2022-11-30T08:44:36.482Z,57.47
2022-11-30T08:47:03.035Z,58.63
2022-11-30T08:49:30.853Z,59.05
2022-11-30T08:54:46.205Z,64.28
2022-11-30T08:57:14.273Z,64.07
2022-11-30T08:59:40.683Z,67.95
2022-11-30T09:02:13.266Z,66.70
2022-11-30T09:04:39.682Z,65.15
2022-11-30T09:07:06.013Z,60.28
2022-11-30T09:09:32.625Z,64.68
2022-11-30T09:11:58.985Z,63.85
2022-11-30T09:14:25.378Z,66.45
2022-11-30T09:16:53.418Z,63.97
2022-11-30T09:19:20.253Z,64.25
2022-11-30T09:21:51.568Z,68.45
2022-11-30T09:24:18.999Z,63.97
2022-11-30T09:26:45.338Z,68.20
2022-11-30T09:29:11.755Z,65.53
2022-11-30T09:31:38.088Z,69.05
2022-11-30T09:34:04.530Z,65.28
2022-11-30T09:36:34.577Z,66.25
2022-11-30T09:39:01.073Z,70.43
2022-11-30T09:41:54.352Z,68.53
2022-11-30T09:44:36.478Z,69.88
2022-11-30T09:47:15.080Z,72.25
2022-11-30T09:49:47.171Z,68.97
2022-11-30T09:52:18.613Z,69.78
2022-11-30T09:54:47.853Z,71.03
2022-11-30T09:57:17.402Z,70.45
2022-11-30T09:59:58.469Z,70.35
2022-11-30T10:02:31.071Z,66.93
2022-11-30T10:04:58.093Z,66.30
2022-11-30T10:07:44.959Z,68.07
2022-11-30T10:10:37.659Z,68.22
2022-11-30T10:13:23.266Z,63.38
2022-11-30T10:16:26.667Z,60.63
2022-11-30T10:19:19.633Z,60.85
2022-11-30T10:21:59.192Z,60.38
2022-11-30T10:24:40.519Z,56.90
2022-11-30T10:27:17.074Z,58.88
2022-11-30T10:29:44.204Z,54.08
2022-11-30T10:32:19.006Z,51.53
2022-11-30T10:34:51.769Z,54.90
2022-11-30T10:37:35.916Z,54.80
2022-11-30T10:40:18.022Z,55.28
2022-11-30T10:42:57.805Z,55.58
2022-11-30T10:45:27.180Z,53.00
2022-11-30T10:48:03.385Z,56.58
2022-11-30T10:50:31.318Z,57.28
2022-11-30T10:53:00.103Z,57.90
2022-11-30T10:55:30.086Z,59.88
2022-11-30T10:58:03.901Z,56.50
2022-11-30T11:00:30.236Z,57.42
2022-11-30T11:02:56.722Z,57.13
2022-11-30T11:05:29.693Z,54.28
2022-11-30T11:08:25.328Z,57.35
2022-11-30T11:10:51.753Z,55.67
2022-11-30T11:13:40.521Z,55.70
2022-11-30T11:16:09.978Z,56.83
2022-11-30T11:18:51.189Z,56.55
2022-11-30T11:21:19.694Z,55.38
2022-11-30T11:23:47.617Z,59.95
2022-11-30T11:26:19.855Z,57.95
2022-11-30T11:28:51.791Z,56.00
2022-11-30T11:31:48.974Z,61.10
2022-11-30T11:34:34.363Z,54.38
2022-11-30T11:37:21.945Z,55.72
2022-11-30T11:40:00.523Z,56.33
2022-11-30T11:42:30.648Z,56.63
2022-11-30T11:44:59.533Z,55.58
2022-11-30T11:47:32.662Z,53.83
2022-11-30T11:50:06.693Z,52.13
2022-11-30T11:52:33.072Z,52.50
2022-11-30T11:55:03.332Z,52.25
2022-11-30T11:57:47.924Z,51.38
2022-11-30T12:03:07.704Z,52.63
2022-11-30T12:05:42.813Z,51.58
2022-11-30T12:08:27.450Z,51.17
2022-11-30T12:11:16.312Z,48.80
2022-11-30T12:13:44.337Z,48.95
2022-11-30T12:16:42.684Z,49.85
2022-11-30T12:19:21.283Z,51.58
2022-11-30T12:22:03.333Z,47.75
2022-11-30T12:24:29.670Z,51.55
2022-11-30T12:27:02.978Z,47.40
2022-11-30T12:29:48.419Z,48.93
2022-11-30T12:32:50.283Z,46.95
2022-11-30T12:35:45.323Z,48.35
2022-11-30T12:38:38.468Z,46.15
2022-11-30T12:41:29.813Z,44.05
2022-11-30T12:44:04.644Z,42.80
2022-11-30T12:46:39.348Z,43.50
2022-11-30T12:49:21.395Z,40.70
2022-11-30T12:51:53.889Z,41.63
2022-11-30T12:54:41.596Z,41.78
2022-11-30T12:57:20.900Z,41.42
2022-11-30T13:00:05.836Z,39.55
2022-11-30T13:02:59.491Z,40.25
2022-11-30T13:05:53.968Z,40.00
2022-11-30T13:08:27.607Z,37.67
2022-11-30T13:11:04.514Z,38.22
2022-11-30T13:13:34.105Z,36.22
2022-11-30T13:16:07.878Z,36.97
2022-11-30T13:18:36.147Z,36.65
2022-11-30T13:21:11.674Z,35.33
2022-11-30T13:23:52.785Z,35.92
2022-11-30T13:26:42.980Z,35.03
2022-11-30T13:29:43.741Z,33.72
2022-11-30T13:32:55.211Z,36.15
2022-11-30T13:35:28.910Z,34.88
2022-11-30T13:38:40.272Z,34.55
2022-11-30T13:41:08.815Z,33.00
2022-11-30T13:43:47.939Z,33.58
2022-11-30T13:46:19.489Z,33.25
2022-11-30T13:48:46.752Z,33.13
2022-11-30T13:51:33.397Z,31.60
2022-11-30T13:54:38.803Z,33.35
2022-11-30T13:57:27.114Z,32.75
2022-11-30T13:59:58.567Z,31.67
2022-11-30T14:02:31.510Z,32.88
2022-11-30T14:05:16.463Z,30.77
2022-11-30T14:07:51.977Z,30.65
2022-11-30T14:10:35.196Z,29.35
2022-11-30T14:13:04.458Z,29.10
2022-11-30T14:15:40.720Z,29.05
2022-11-30T14:18:10.084Z,28.75
2022-11-30T14:20:48.828Z,29.48
2022-11-30T14:23:20.786Z,28.80
2022-11-30T14:25:51.803Z,28.50
2022-11-30T14:28:22.911Z,27.70
2022-11-30T14:30:49.397Z,27.08
2022-11-30T14:33:27.063Z,26.42
2022-11-30T14:35:57.993Z,25.95
2022-11-30T14:38:27.519Z,26.60
2022-11-30T14:40:54.692Z,26.98
2022-11-30T14:43:21.329Z,26.75
2022-11-30T14:46:08.149Z,27.55
2022-11-30T14:48:37.936Z,26.08
2022-11-30T14:51:04.528Z,25.65
2022-11-30T14:54:00.088Z,26.40
2022-11-30T14:56:36.846Z,25.67
2022-11-30T14:59:27.604Z,26.40
2022-11-30T15:01:59.862Z,24.70
2022-11-30T15:04:27.654Z,25.10
2022-11-30T15:06:55.849Z,24.90
2022-11-30T15:09:32.482Z,26.35
2022-11-30T15:11:59.873Z,24.95
2022-11-30T15:14:26.443Z,25.15
2022-11-30T15:16:59.648Z,24.73
2022-11-30T15:19:29.497Z,23.73
2022-11-30T15:21:56.895Z,24.60
2022-11-30T15:24:23.864Z,23.13
2022-11-30T15:27:04.341Z,24.75
2022-11-30T15:29:43.111Z,23.63
2022-11-30T15:32:17.685Z,24.60
2022-11-30T15:34:56.781Z,25.08
2022-11-30T15:37:37.895Z,25.23
2022-11-30T15:40:07.821Z,24.67
2022-11-30T15:42:43.817Z,24.13
2022-11-30T15:45:23.703Z,25.75
2022-11-30T15:47:51.609Z,24.42
2022-11-30T15:50:39.474Z,24.95
2022-11-30T15:53:54.197Z,24.25
2022-11-30T15:56:26.085Z,25.33
2022-11-30T15:59:14.088Z,23.95
2022-11-30T16:02:08.890Z,25.02
2022-11-30T16:07:20.277Z,25.48
2022-11-30T16:09:46.946Z,25.48
2022-11-30T16:12:28.351Z,25.52
2022-11-30T16:14:54.782Z,26.67
2022-11-30T16:17:21.574Z,25.83
2022-11-30T16:19:48.150Z,27.85
2022-11-30T16:22:15.955Z,25.63
2022-11-30T16:24:42.766Z,26.80
2022-11-30T16:27:20.060Z,26.17
2022-11-30T16:29:51.902Z,26.10
2022-11-30T16:32:19.467Z,25.75
2022-11-30T16:34:47.720Z,26.10
2022-11-30T16:37:14.722Z,25.52
2022-11-30T16:39:41.119Z,24.83
2022-11-30T16:42:11.827Z,25.30
2022-11-30T16:44:38.339Z,25.88
2022-11-30T16:47:04.673Z,24.50
2022-11-30T16:49:31.039Z,24.13
2022-11-30T16:51:57.386Z,25.58
2022-11-30T16:54:23.736Z,24.85
2022-11-30T16:56:50.063Z,26.67
2022-11-30T16:59:17.069Z,24.65
2022-11-30T17:01:47.266Z,24.55
2022-11-30T17:04:26.309Z,24.60
2022-11-30T17:06:58.793Z,24.00
2022-11-30T17:09:29.780Z,24.83
2022-11-30T17:11:56.334Z,25.83
2022-11-30T17:14:23.762Z,24.80
2022-11-30T17:16:50.518Z,24.23
2022-11-30T17:19:17.098Z,25.15
2022-11-30T17:21:44.509Z,25.50
2022-11-30T17:24:11.912Z,25.15
2022-11-30T17:26:38.344Z,25.45
2022-11-30T17:29:04.694Z,24.95
2022-11-30T17:31:31.263Z,25.30
2022-11-30T17:33:57.940Z,24.52
2022-11-30T17:36:24.422Z,25.20
2022-11-30T17:38:51.036Z,24.65
2022-11-30T17:41:19.915Z,26.30
2022-11-30T17:43:47.881Z,25.20
2022-11-30T17:46:17.243Z,27.95
2022-11-30T17:48:43.934Z,28.83
2022-11-30T17:51:12.758Z,27.48
2022-11-30T17:53:40.456Z,27.95
2022-11-30T17:56:09.232Z,28.35
2022-11-30T17:58:43.397Z,26.58
2022-11-30T18:01:23.173Z,28.33
2022-11-30T18:03:50.316Z,28.60
2022-11-30T18:06:17.452Z,30.30
2022-11-30T18:08:44.354Z,29.80
2022-11-30T18:11:13.538Z,30.75
2022-11-30T18:13:40.619Z,32.53
2022-11-30T18:16:15.468Z,32.42
2022-11-30T18:18:47.423Z,34.03
2022-11-30T18:21:18.037Z,31.85
2022-11-30T18:23:44.579Z,34.10
2022-11-30T18:26:17.311Z,36.22
2022-11-30T18:28:44.442Z,36.28
2022-11-30T18:31:11.059Z,36.75
2022-11-30T18:33:38.275Z,34.70
2022-11-30T18:36:09.014Z,35.80
2022-11-30T18:38:38.475Z,35.03
2022-11-30T18:41:05.945Z,36.15
2022-11-30T18:43:33.406Z,35.33
2022-11-30T18:46:08.460Z,36.03
2022-11-30T18:48:36.039Z,35.30
2022-11-30T18:51:28.089Z,36.28
2022-11-30T18:54:08.541Z,35.45
2022-11-30T18:56:37.189Z,36.70
2022-11-30T18:59:06.751Z,36.58
2022-11-30T19:01:33.586Z,38.40
2022-11-30T19:04:02.657Z,36.40
2022-11-30T19:06:29.947Z,37.60
2022-11-30T19:08:57.103Z,36.92
2022-11-30T19:11:24.158Z,37.05
2022-11-30T19:13:54.890Z,35.58
2022-11-30T19:16:21.618Z,37.30
2022-11-30T19:18:48.656Z,35.83
2022-11-30T19:21:17.534Z,35.60
2022-11-30T19:23:44.327Z,35.22
2022-11-30T19:26:11.189Z,36.63
2022-11-30T19:28:38.593Z,39.28
2022-11-30T19:31:10.985Z,36.60
2022-11-30T19:33:39.277Z,38.85
2022-11-30T19:36:08.395Z,36.22
2022-11-30T19:38:34.846Z,35.55
2022-11-30T19:41:06.145Z,38.42
2022-11-30T19:43:32.520Z,38.65
2022-11-30T19:46:11.518Z,38.72
2022-11-30T19:48:37.917Z,38.35
2022-11-30T19:51:06.776Z,39.08
2022-11-30T19:53:33.642Z,39.00
2022-11-30T19:56:04.633Z,37.53
2022-11-30T19:58:31.735Z,36.67
2022-11-30T20:01:05.715Z,37.15
2022-11-30T20:03:35.725Z,38.65
2022-11-30T20:06:02.895Z,37.42
2022-11-30T20:08:29.377Z,38.17
2022-11-30T20:10:55.747Z,36.30
2022-11-30T20:13:22.068Z,35.85
2022-11-30T20:15:48.664Z,38.00
2022-11-30T20:18:15.082Z,36.58
2022-11-30T20:20:41.420Z,37.63
2022-11-30T20:23:07.766Z,36.47
2022-11-30T20:25:34.371Z,36.38
2022-11-30T20:28:01.049Z,35.05
2022-11-30T20:30:28.127Z,35.35
2022-11-30T20:32:54.536Z,35.33
2022-11-30T20:35:21.042Z,34.58
2022-11-30T20:37:47.485Z,35.88
2022-11-30T20:40:13.915Z,36.72
2022-11-30T20:42:40.235Z,35.40
2022-11-30T20:45:07.009Z,37.47
2022-11-30T20:47:36.579Z,35.90
2022-11-30T20:50:04.761Z,32.78
2022-11-30T20:52:31.113Z,33.17
2022-11-30T20:54:57.480Z,32.38
2022-11-30T20:57:23.784Z,31.58
2022-11-30T20:59:50.346Z,31.17
2022-11-30T21:02:16.730Z,32.70
2022-11-30T21:04:43.273Z,31.13
2022-11-30T21:07:09.623Z,31.40
2022-11-30T21:09:35.956Z,30.58
2022-11-30T21:12:02.257Z,30.60
2022-11-30T21:14:28.788Z,32.28
2022-11-30T21:16:55.185Z,31.48
2022-11-30T21:19:21.696Z,32.33
2022-11-30T21:21:48.056Z,31.05
2022-11-30T21:24:14.410Z,31.13
2022-11-30T21:26:42.851Z,31.90
2022-11-30T21:29:15.298Z,32.08
2022-11-30T21:31:42.287Z,34.97
2022-11-30T21:34:08.977Z,34.08
2022-11-30T21:36:35.405Z,33.35
2022-11-30T21:39:06.131Z,34.08
2022-11-30T21:41:37.988Z,35.35
2022-11-30T21:44:05.748Z,35.58
2022-11-30T21:46:32.588Z,33.85
2022-11-30T21:48:58.984Z,35.28
2022-11-30T21:51:28.826Z,37.17
2022-11-30T21:53:57.796Z,36.72
2022-11-30T21:56:29.925Z,34.88
2022-11-30T21:58:57.383Z,34.17
2022-11-30T22:01:30.725Z,34.58
2022-11-30T22:03:58.918Z,36.17
2022-11-30T22:06:27.226Z,35.30
2022-11-30T22:08:56.229Z,34.05
2022-11-30T22:11:23.166Z,36.03
2022-11-30T22:13:51.686Z,32.17
2022-11-30T22:16:19.180Z,35.63
2022-11-30T22:18:46.110Z,36.10
2022-11-30T22:21:18.224Z,35.55
2022-11-30T22:23:46.738Z,37.78
2022-11-30T22:26:16.882Z,36.58
2022-11-30T22:28:45.661Z,37.50
2022-11-30T22:31:14.026Z,37.83
2022-11-30T22:33:42.640Z,37.55
2022-11-30T22:36:13.613Z,37.53
2022-11-30T22:38:40.362Z,37.75
2022-11-30T22:41:08.531Z,36.00
2022-11-30T22:43:35.427Z,35.90
2022-11-30T22:46:10.031Z,35.72
2022-11-30T22:48:37.363Z,36.30
2022-11-30T22:51:04.547Z,36.15
2022-11-30T22:53:31.038Z,35.42
2022-11-30T22:56:04.807Z,36.67
2022-11-30T22:58:31.342Z,35.35
2022-11-30T23:00:58.828Z,35.05
2022-11-30T23:03:28.371Z,32.50
2022-11-30T23:05:55.159Z,37.20
2022-11-30T23:08:21.599Z,35.38
2022-11-30T23:10:48.235Z,34.78
2022-11-30T23:13:14.591Z,35.70
2022-11-30T23:15:41.661Z,34.92
2022-11-30T23:18:08.136Z,35.72
2022-11-30T23:20:35.867Z,35.78
2022-11-30T23:23:02.199Z,36.85
2022-11-30T23:25:28.587Z,36.55
2022-11-30T23:27:55.053Z,35.22
2022-11-30T23:30:21.379Z,34.33
2022-11-30T23:32:47.867Z,36.20
2022-11-30T23:35:14.270Z,39.42
2022-11-30T23:37:40.688Z,36.50
2022-11-30T23:40:07.854Z,37.60
2022-11-30T23:42:34.245Z,35.60
2022-11-30T23:45:01.025Z,36.75
2022-11-30T23:47:27.588Z,39.65
2022-11-30T23:49:53.926Z,36.85
2022-11-30T23:52:20.306Z,38.38
2022-11-30T23:54:46.754Z,41.13
2022-11-30T23:57:13.276Z,40.92
2022-11-30T23:59:39.578Z,37.08
